罗盘
风向 的 风向 的 风向 到 风向 110° Stadskanaal Airfield 6/24
风: 6 kt, 2 beaufort

4 kt

5 kt
改变
0 1.000 2.000 3.000 4.000 5.000
没有观察到明显的云
METAR EHMA 021955Z AUTO 11006KT 080V140 9999 NSC 19/14 Q1018

METAR Stadskanaal Airfield

Stadskanaal Airfield是Stadskanaal,荷兰中的小机场。 该机场有一条跑道: 6/24.

这份报告是针对2022年7月2日 9:55 下午, 当地时间在AWG-1进行的。

机场观察

风向为110°,速度为6 kt。 风向在080°和140°之间变化。

可见度为6¼ mi 或者更多。

有没有观察到明显的云。 没有观察到天花板。

温度和风寒是66 °F。 露点为57 °F,相对湿度为73%。 海平面上的气压为30,06 inHg (QNH)。

白天

今天,太阳从5:11 上午升起,在10:00 下午降落。 这适用于Stadskanaal Airfield,世界夏令时可能有所不同。 当地时间与世界标准时间之间的时差为+2 小时。 夏令时目前正在进行中。

公司介绍

我们没有关于这个机场的公司信息。

体会

到Vliegles.nl去找飞行课程,跳伞和其他飞行体验。 浏览页面,了解Stadskanaal Airfield附近所有可用的活动。 你也可以使用搜索功能来寻找你所在地附近的特定飞行课程、跳伞或其他飞行体验。

您会帮助我们保持Metar-Taf.com正常运行吗?
您的贡献有助于网站的进一步开发并支付费用。

没有更多广告

您是捐款5美元还是更多?然后,我们将永远不会再向您展示广告,这是我们永恒的感谢!
捐赠前先登录

跑道

Id 标题 侧风 逆风 侧风 %
6/24 058°-238° 5 kt 4 kt 79 %

逆风成分最大的方向会被突出显示,并用于横风计算。 这并不一定意味着这个方向在使用。

乌云

- NSC 没有观察到明显的云

温度 & 天气

温度 66 °F
露点 57 °F
相对湿度 73%
Kp-index 0  

公司介绍

新增公司

下载我们的应用程序

在您的手机和平板电脑上轻松访问所有航空天气。
有许多网站上没有的功能,如离线支持和个人机场列表。

Studio Eveline

Benalmádena
España

我们和第三方通过cookies跟踪您在我们网站上的上网行为。如果您继续,我们认为您同意我们的cookie政策。 了解更多